createdAt,value
2022-12-31T00:02:09.506Z,6.43
2022-12-31T00:04:58.553Z,6.60
2022-12-31T00:07:55.285Z,6.45
2022-12-31T00:10:46.758Z,6.32
2022-12-31T00:13:40.958Z,6.38
2022-12-31T00:16:41.408Z,6.20
2022-12-31T00:19:56.436Z,6.47
2022-12-31T00:22:50.687Z,6.68
2022-12-31T00:25:48.216Z,6.55
2022-12-31T00:28:36.801Z,6.63
2022-12-31T00:31:31.811Z,6.75
2022-12-31T00:34:18.625Z,6.53
2022-12-31T00:37:05.527Z,6.63
2022-12-31T00:40:00.324Z,6.45
2022-12-31T00:42:53.125Z,6.68
2022-12-31T00:45:42.985Z,7.05
2022-12-31T00:48:34.424Z,6.43
2022-12-31T00:51:23.551Z,6.63
2022-12-31T00:54:13.212Z,6.45
2022-12-31T00:57:03.190Z,6.80
2022-12-31T00:59:52.529Z,7.00
2022-12-31T01:03:02.093Z,6.53
2022-12-31T01:05:50.351Z,6.90
2022-12-31T01:08:37.662Z,6.82
2022-12-31T01:11:31.158Z,6.45
2022-12-31T01:14:19.535Z,7.30
2022-12-31T01:17:06.432Z,7.47
2022-12-31T01:19:53.523Z,7.30
2022-12-31T01:22:40.333Z,6.70
2022-12-31T01:25:27.174Z,7.03
2022-12-31T01:28:14.012Z,6.70
2022-12-31T01:31:12.055Z,7.20
2022-12-31T01:34:00.377Z,7.47
2022-12-31T01:36:47.279Z,7.43
2022-12-31T01:39:34.233Z,7.25
2022-12-31T01:42:22.551Z,7.28
2022-12-31T01:45:12.580Z,6.87
2022-12-31T01:47:59.733Z,7.10
2022-12-31T01:50:46.870Z,7.30
2022-12-31T01:53:40.721Z,7.30
2022-12-31T01:56:30.489Z,6.30
2022-12-31T01:59:18.613Z,7.35
2022-12-31T02:02:08.637Z,7.07
2022-12-31T02:04:57.596Z,6.70
2022-12-31T02:07:44.724Z,6.80
2022-12-31T02:10:37.779Z,6.80
2022-12-31T02:13:24.680Z,6.97
2022-12-31T02:16:28.590Z,7.18
2022-12-31T02:19:34.733Z,6.78
2022-12-31T02:22:39.966Z,6.97
2022-12-31T02:25:35.083Z,7.22
2022-12-31T02:28:50.081Z,6.60
2022-12-31T02:31:48.951Z,7.15
2022-12-31T02:34:41.135Z,5.93
2022-12-31T02:37:29.069Z,6.95
2022-12-31T02:40:19.408Z,5.75
2022-12-31T02:43:06.411Z,6.47
2022-12-31T02:46:27.269Z,6.38
2022-12-31T02:49:21.533Z,6.20
2022-12-31T02:52:31.567Z,6.22
2022-12-31T02:55:30.716Z,6.47
2022-12-31T03:02:00.334Z,6.07
2022-12-31T03:04:55.499Z,5.90
2022-12-31T03:07:43.173Z,5.85
2022-12-31T03:10:29.986Z,6.28
2022-12-31T03:13:16.843Z,5.75
2022-12-31T03:16:06.795Z,6.25
2022-12-31T03:19:12.330Z,6.03
2022-12-31T03:22:17.737Z,5.63
2022-12-31T03:25:30.125Z,5.93
2022-12-31T03:28:18.783Z,5.80
2022-12-31T03:31:06.069Z,6.65
2022-12-31T03:33:53.559Z,5.72
2022-12-31T03:36:40.383Z,5.88
2022-12-31T03:39:29.323Z,5.70
2022-12-31T03:42:16.099Z,5.95
2022-12-31T03:45:03.334Z,5.80
2022-12-31T03:47:50.934Z,6.10
2022-12-31T03:50:37.813Z,5.60
2022-12-31T03:53:24.685Z,5.03
2022-12-31T03:56:11.545Z,6.28
2022-12-31T03:58:58.374Z,6.15
2022-12-31T04:01:50.865Z,5.80
2022-12-31T04:04:37.782Z,5.30
2022-12-31T04:07:24.639Z,5.15
2022-12-31T04:10:13.610Z,5.35
2022-12-31T04:13:02.449Z,6.03
2022-12-31T04:15:51.003Z,5.55
2022-12-31T04:18:37.913Z,5.05
2022-12-31T04:21:26.823Z,5.35
2022-12-31T04:24:15.644Z,5.32
2022-12-31T04:27:10.439Z,4.95
2022-12-31T04:29:57.318Z,4.80
2022-12-31T04:32:47.142Z,5.10
2022-12-31T04:35:34.035Z,5.38
2022-12-31T04:38:20.833Z,4.53
2022-12-31T04:41:22.885Z,4.53
2022-12-31T04:44:21.731Z,4.35
2022-12-31T04:47:16.291Z,4.20
2022-12-31T04:50:13.659Z,4.18
2022-12-31T04:53:00.513Z,4.43
2022-12-31T04:55:47.409Z,3.88
2022-12-31T04:58:34.471Z,3.78
2022-12-31T05:01:22.016Z,4.10
2022-12-31T05:04:14.663Z,3.83
2022-12-31T05:07:04.073Z,3.75
2022-12-31T05:09:51.029Z,3.38
2022-12-31T05:12:37.895Z,3.35
2022-12-31T05:15:29.407Z,3.38
2022-12-31T05:18:16.317Z,3.20
2022-12-31T05:21:03.543Z,3.42
2022-12-31T05:23:52.674Z,3.28
2022-12-31T05:26:39.477Z,3.35
2022-12-31T05:29:27.551Z,2.80
2022-12-31T05:32:17.339Z,2.67
2022-12-31T05:35:18.449Z,2.92
2022-12-31T05:38:05.441Z,2.60
2022-12-31T05:41:03.651Z,2.80
2022-12-31T05:43:50.505Z,2.63
2022-12-31T05:46:37.341Z,2.88
2022-12-31T05:49:24.182Z,2.60
2022-12-31T05:52:14.328Z,2.33
2022-12-31T05:55:01.182Z,2.40
2022-12-31T05:57:48.047Z,2.20
2022-12-31T06:00:36.018Z,2.30
2022-12-31T06:03:22.917Z,2.35
2022-12-31T06:06:19.758Z,1.95
2022-12-31T06:09:06.573Z,1.90
2022-12-31T06:11:53.479Z,1.90
2022-12-31T06:14:45.834Z,2.00
2022-12-31T06:17:32.888Z,1.90
2022-12-31T06:20:21.231Z,2.00
2022-12-31T06:23:10.407Z,1.90
2022-12-31T06:28:45.604Z,1.67
2022-12-31T06:31:41.313Z,1.70
2022-12-31T06:34:28.126Z,1.65
2022-12-31T06:37:17.301Z,1.67
2022-12-31T06:42:59.869Z,1.55
2022-12-31T06:45:47.073Z,1.77
2022-12-31T06:48:34.175Z,1.70
2022-12-31T06:51:21.692Z,1.58
2022-12-31T06:54:08.542Z,1.58
2022-12-31T06:56:55.513Z,1.60
2022-12-31T06:59:43.141Z,1.65
2022-12-31T07:02:41.630Z,1.45
2022-12-31T07:05:34.592Z,1.55
2022-12-31T07:08:47.097Z,1.50
2022-12-31T07:11:39.804Z,1.40
2022-12-31T07:14:50.028Z,1.63
2022-12-31T07:17:52.094Z,1.60
2022-12-31T07:20:46.333Z,1.63
2022-12-31T07:23:42.686Z,1.40
2022-12-31T07:26:42.936Z,1.60
2022-12-31T07:29:51.738Z,1.92
2022-12-31T07:32:57.496Z,1.67
2022-12-31T07:36:14.730Z,1.60
2022-12-31T07:39:18.514Z,1.67
2022-12-31T07:42:15.531Z,1.63
2022-12-31T07:45:20.926Z,1.70
2022-12-31T07:48:40.093Z,2.05
2022-12-31T07:51:32.057Z,1.90
2022-12-31T07:54:39.368Z,1.70
2022-12-31T07:57:34.632Z,1.92
2022-12-31T08:00:27.866Z,1.95
2022-12-31T08:03:52.453Z,2.00
2022-12-31T08:07:06.535Z,2.25
2022-12-31T08:10:19.435Z,2.10
2022-12-31T08:16:45.676Z,2.30
2022-12-31T08:19:57.468Z,2.30
2022-12-31T08:23:11.396Z,2.20
2022-12-31T08:26:31.700Z,2.40
2022-12-31T08:29:39.502Z,2.60
2022-12-31T08:33:08.182Z,2.17
2022-12-31T08:36:19.529Z,2.30
2022-12-31T08:39:16.372Z,2.40
2022-12-31T08:42:27.839Z,2.30
2022-12-31T08:45:41.963Z,2.25
2022-12-31T08:48:43.485Z,2.53
2022-12-31T08:51:33.949Z,2.55
2022-12-31T08:57:56.078Z,2.30
2022-12-31T09:00:52.382Z,2.60
2022-12-31T09:03:45.871Z,2.33
2022-12-31T09:06:43.326Z,2.42
2022-12-31T09:09:59.897Z,2.40
2022-12-31T09:13:01.689Z,2.33
2022-12-31T09:15:52.539Z,2.40
2022-12-31T09:19:02.993Z,2.50
2022-12-31T09:21:56.540Z,2.30
2022-12-31T09:28:57.549Z,2.75
2022-12-31T09:32:05.473Z,2.70
2022-12-31T09:35:22.319Z,2.90
2022-12-31T09:38:36.404Z,2.50
2022-12-31T09:41:58.473Z,2.70
2022-12-31T09:45:06.927Z,2.42
2022-12-31T09:48:08.938Z,2.50
2022-12-31T09:51:31.669Z,2.50
2022-12-31T09:54:30.617Z,2.28
2022-12-31T09:57:31.161Z,2.30
2022-12-31T10:00:31.546Z,2.17
2022-12-31T10:03:56.352Z,2.03
2022-12-31T10:07:06.886Z,2.20
2022-12-31T10:10:15.799Z,1.90
2022-12-31T10:13:55.355Z,1.90
2022-12-31T10:17:03.404Z,1.80
2022-12-31T10:20:26.724Z,1.80
2022-12-31T10:23:49.328Z,1.80
2022-12-31T10:27:01.087Z,1.90
2022-12-31T10:30:23.044Z,1.88
2022-12-31T10:33:33.082Z,1.85
2022-12-31T10:37:11.708Z,1.80
2022-12-31T10:40:23.158Z,1.90
2022-12-31T10:43:24.941Z,1.70
2022-12-31T10:46:39.470Z,1.50
2022-12-31T10:49:32.697Z,1.58
2022-12-31T10:52:29.842Z,1.52
2022-12-31T10:59:23.533Z,1.60
2022-12-31T11:03:29.706Z,1.50
2022-12-31T11:07:01.807Z,1.48
2022-12-31T11:10:36.721Z,1.40
2022-12-31T11:14:02.058Z,1.23
2022-12-31T11:16:53.784Z,1.38
2022-12-31T11:20:23.882Z,1.33
2022-12-31T11:24:26.348Z,1.27
2022-12-31T11:27:57.642Z,1.20
2022-12-31T11:31:36.478Z,1.40
2022-12-31T11:37:41.536Z,1.27
2022-12-31T11:40:55.216Z,1.40
2022-12-31T11:44:29.879Z,1.30
2022-12-31T11:48:28.487Z,1.50
2022-12-31T11:52:11.002Z,1.23
2022-12-31T11:55:15.893Z,1.45
2022-12-31T11:58:31.225Z,1.15
2022-12-31T12:01:50.286Z,1.20
2022-12-31T12:07:24.479Z,1.50
2022-12-31T12:10:59.459Z,1.30
2022-12-31T12:13:53.321Z,1.10
2022-12-31T12:16:44.511Z,1.20
2022-12-31T12:19:47.132Z,1.25
2022-12-31T12:22:49.528Z,1.25
2022-12-31T12:25:49.650Z,1.10
2022-12-31T12:28:49.417Z,1.20
2022-12-31T12:31:42.480Z,1.20
2022-12-31T12:34:45.910Z,1.10
2022-12-31T12:37:59.197Z,1.20
2022-12-31T12:41:10.793Z,1.15
2022-12-31T12:44:11.774Z,1.10
2022-12-31T12:47:01.930Z,1.05
2022-12-31T12:50:03.040Z,1.27
2022-12-31T12:52:59.156Z,1.25
2022-12-31T12:56:49.150Z,1.10
2022-12-31T13:03:29.081Z,1.30
2022-12-31T13:15:10.193Z,1.00
2022-12-31T13:22:13.901Z,1.20
2022-12-31T13:25:27.746Z,1.13
2022-12-31T13:28:41.786Z,1.23
2022-12-31T13:35:40.686Z,1.42
2022-12-31T13:42:13.568Z,1.10
2022-12-31T13:49:43.243Z,0.90
2022-12-31T13:57:10.975Z,0.98
2022-12-31T14:01:03.887Z,1.20
2022-12-31T14:04:37.960Z,1.10
2022-12-31T14:08:47.799Z,1.30
2022-12-31T14:26:35.561Z,1.10
2022-12-31T14:29:45.992Z,1.00
2022-12-31T14:33:27.278Z,1.27
2022-12-31T14:36:52.561Z,1.30
2022-12-31T14:44:28.042Z,1.15
2022-12-31T14:58:09.738Z,1.30
2022-12-31T15:01:44.814Z,1.20
2022-12-31T15:05:32.256Z,1.30
2022-12-31T15:13:17.080Z,1.60
2022-12-31T15:37:13.289Z,1.70
2022-12-31T15:41:11.187Z,2.00
2022-12-31T15:48:40.931Z,1.95
2022-12-31T15:52:11.348Z,2.03
2022-12-31T16:06:55.899Z,2.20
2022-12-31T16:10:04.334Z,2.30
2022-12-31T16:13:45.256Z,2.50
2022-12-31T16:20:02.951Z,2.60
2022-12-31T16:23:46.170Z,2.72
2022-12-31T16:26:50.572Z,2.65
2022-12-31T16:29:38.344Z,2.65
2022-12-31T16:32:47.049Z,2.55
2022-12-31T16:35:46.435Z,2.80
2022-12-31T16:38:36.979Z,2.65
2022-12-31T16:41:54.819Z,3.13
2022-12-31T16:44:49.499Z,2.63
2022-12-31T16:47:43.180Z,3.00
2022-12-31T16:53:42.579Z,3.03
2022-12-31T16:56:39.676Z,3.28
2022-12-31T16:59:47.973Z,3.28
2022-12-31T17:03:06.817Z,3.13
2022-12-31T17:09:16.684Z,3.60
2022-12-31T17:12:19.292Z,3.17
2022-12-31T17:15:09.247Z,3.40
2022-12-31T17:18:01.185Z,3.50
2022-12-31T17:20:59.973Z,3.88
2022-12-31T17:24:11.710Z,3.53
2022-12-31T17:27:42.188Z,3.72
2022-12-31T17:30:46.878Z,3.38
2022-12-31T17:34:00.976Z,3.60
2022-12-31T17:37:06.668Z,3.67
2022-12-31T17:40:50.442Z,3.70
2022-12-31T17:44:13.109Z,3.65
2022-12-31T17:54:56.046Z,3.92
2022-12-31T17:59:34.383Z,3.72
2022-12-31T18:01:50.878Z,3.95
2022-12-31T18:04:52.249Z,4.43
2022-12-31T18:13:03.467Z,4.60
2022-12-31T18:24:47.209Z,4.57
2022-12-31T18:28:25.766Z,4.55
2022-12-31T18:36:07.614Z,4.18
2022-12-31T18:40:25.514Z,5.13
2022-12-31T18:43:43.061Z,4.70
2022-12-31T18:54:14.627Z,5.20
2022-12-31T19:01:38.108Z,4.47
2022-12-31T19:05:07.162Z,4.90
2022-12-31T19:15:20.319Z,4.30
2022-12-31T19:30:12.544Z,4.40
2022-12-31T19:32:05.447Z,4.85
2022-12-31T19:39:04.635Z,4.55
2022-12-31T19:53:47.294Z,4.72
2022-12-31T19:57:04.112Z,4.60
2022-12-31T20:00:34.990Z,5.00
2022-12-31T20:03:40.616Z,5.38
2022-12-31T20:18:42.751Z,4.88
2022-12-31T20:29:15.521Z,5.60
2022-12-31T20:36:19.768Z,5.70
2022-12-31T20:56:18.680Z,5.60
2022-12-31T21:04:18.708Z,5.50
2022-12-31T21:07:44.160Z,5.82
2022-12-31T21:11:16.910Z,5.60
2022-12-31T21:14:23.353Z,6.35
2022-12-31T21:17:47.515Z,6.63
2022-12-31T22:05:53.277Z,7.88
2022-12-31T22:30:28.531Z,9.02
2022-12-31T22:36:53.729Z,8.13
2022-12-31T22:46:57.320Z,8.57
2022-12-31T22:49:55.113Z,9.10
2022-12-31T22:56:24.431Z,8.77
2022-12-31T22:59:30.702Z,8.48
2022-12-31T23:02:41.901Z,8.70
2022-12-31T23:05:30.867Z,8.77
2022-12-31T23:08:23.089Z,8.30
2022-12-31T23:11:15.410Z,8.93
2022-12-31T23:14:52.290Z,10.18
2022-12-31T23:18:14.217Z,12.05
2022-12-31T23:22:22.507Z,14.57
2022-12-31T23:25:22.560Z,13.00
2022-12-31T23:28:58.934Z,13.70
2022-12-31T23:36:08.136Z,16.67
2022-12-31T23:38:59.032Z,16.17
2022-12-31T23:45:54.756Z,17.35
2022-12-31T23:48:51.324Z,18.02
2022-12-31T23:59:54.481Z,17.52
